sensor_id;sensor_type;location;lat;lon;timestamp;temperature;humidity
52211;DHT22;38179;52.756;6.906;2022-11-18T00:01:15;7.00;99.90
52211;DHT22;38179;52.756;6.906;2022-11-18T00:03:42;7.00;99.90
52211;DHT22;38179;52.756;6.906;2022-11-18T00:06:12;7.00;99.90
52211;DHT22;38179;52.756;6.906;2022-11-18T00:08:38;7.00;99.90
52211;DHT22;38179;52.756;6.906;2022-11-18T00:11:15;7.00;99.90
52211;DHT22;38179;52.756;6.906;2022-11-18T00:13:59;7.00;99.90
52211;DHT22;38179;52.756;6.906;2022-11-18T00:16:48;7.10;99.90
52211;DHT22;38179;52.756;6.906;2022-11-18T00:19:15;7.00;99.90
52211;DHT22;38179;52.756;6.906;2022-11-18T00:21:41;7.00;99.90
52211;DHT22;38179;52.756;6.906;2022-11-18T00:24:07;7.00;99.90
52211;DHT22;38179;52.756;6.906;2022-11-18T00:26:33;7.00;99.90
52211;DHT22;38179;52.756;6.906;2022-11-18T00:29:00;7.00;99.90
52211;DHT22;38179;52.756;6.906;2022-11-18T00:31:26;7.00;99.90
52211;DHT22;38179;52.756;6.906;2022-11-18T00:33:53;7.00;99.90
52211;DHT22;38179;52.756;6.906;2022-11-18T00:36:19;7.00;99.90
52211;DHT22;38179;52.756;6.906;2022-11-18T00:38:44;7.00;99.90
52211;DHT22;38179;52.756;6.906;2022-11-18T00:41:12;7.10;99.90
52211;DHT22;38179;52.756;6.906;2022-11-18T00:43:39;7.00;99.90
52211;DHT22;38179;52.756;6.906;2022-11-18T00:46:07;7.00;99.90
52211;DHT22;38179;52.756;6.906;2022-11-18T00:48:33;7.10;99.90
52211;DHT22;38179;52.756;6.906;2022-11-18T00:51:10;7.00;99.90
52211;DHT22;38179;52.756;6.906;2022-11-18T00:53:38;7.00;99.90
52211;DHT22;38179;52.756;6.906;2022-11-18T00:56:04;7.00;99.90
52211;DHT22;38179;52.756;6.906;2022-11-18T00:58:30;7.00;99.90
52211;DHT22;38179;52.756;6.906;2022-11-18T01:00:56;7.00;99.90
52211;DHT22;38179;52.756;6.906;2022-11-18T01:03:22;7.00;99.90
52211;DHT22;38179;52.756;6.906;2022-11-18T01:05:50;7.00;99.90
52211;DHT22;38179;52.756;6.906;2022-11-18T01:08:16;7.00;99.90
52211;DHT22;38179;52.756;6.906;2022-11-18T01:10:43;7.00;99.90
52211;DHT22;38179;52.756;6.906;2022-11-18T01:13:13;7.00;99.90
52211;DHT22;38179;52.756;6.906;2022-11-18T01:15:52;7.00;99.90
52211;DHT22;38179;52.756;6.906;2022-11-18T01:18:21;7.00;99.90
52211;DHT22;38179;52.756;6.906;2022-11-18T01:20:47;7.00;99.90
52211;DHT22;38179;52.756;6.906;2022-11-18T01:23:14;7.00;99.90
52211;DHT22;38179;52.756;6.906;2022-11-18T01:25:42;7.00;99.90
52211;DHT22;38179;52.756;6.906;2022-11-18T01:28:08;7.00;99.90
52211;DHT22;38179;52.756;6.906;2022-11-18T01:30:35;7.00;99.90
52211;DHT22;38179;52.756;6.906;2022-11-18T01:33:03;7.00;99.90
52211;DHT22;38179;52.756;6.906;2022-11-18T01:35:34;7.00;99.90
52211;DHT22;38179;52.756;6.906;2022-11-18T01:38:00;7.00;99.90
52211;DHT22;38179;52.756;6.906;2022-11-18T01:40:26;7.00;99.90
52211;DHT22;38179;52.756;6.906;2022-11-18T01:42:54;7.00;99.90
52211;DHT22;38179;52.756;6.906;2022-11-18T01:45:34;6.90;99.90
52211;DHT22;38179;52.756;6.906;2022-11-18T01:48:12;7.00;99.90
52211;DHT22;38179;52.756;6.906;2022-11-18T01:50:46;7.00;99.90
52211;DHT22;38179;52.756;6.906;2022-11-18T01:53:23;7.00;99.90
52211;DHT22;38179;52.756;6.906;2022-11-18T01:55:52;7.00;99.90
52211;DHT22;38179;52.756;6.906;2022-11-18T01:58:26;6.90;99.90
52211;DHT22;38179;52.756;6.906;2022-11-18T02:00:54;7.00;99.90
52211;DHT22;38179;52.756;6.906;2022-11-18T02:03:21;7.00;99.90
52211;DHT22;38179;52.756;6.906;2022-11-18T02:05:48;7.00;99.90
52211;DHT22;38179;52.756;6.906;2022-11-18T02:08:16;7.00;99.90
52211;DHT22;38179;52.756;6.906;2022-11-18T02:10:43;6.90;99.90
52211;DHT22;38179;52.756;6.906;2022-11-18T02:13:10;7.00;99.90
52211;DHT22;38179;52.756;6.906;2022-11-18T02:16:01;7.00;99.90
52211;DHT22;38179;52.756;6.906;2022-11-18T02:32:25;7.00;99.90
52211;DHT22;38179;52.756;6.906;2022-11-18T02:35:25;7.00;99.90
52211;DHT22;38179;52.756;6.906;2022-11-18T02:38:10;6.90;99.90
52211;DHT22;38179;52.756;6.906;2022-11-18T02:40:42;6.90;99.90
52211;DHT22;38179;52.756;6.906;2022-11-18T02:43:20;6.90;99.90
52211;DHT22;38179;52.756;6.906;2022-11-18T02:45:51;6.90;99.90
52211;DHT22;38179;52.756;6.906;2022-11-18T02:48:19;6.90;99.90
52211;DHT22;38179;52.756;6.906;2022-11-18T02:50:48;6.90;99.90
52211;DHT22;38179;52.756;6.906;2022-11-18T02:53:18;6.90;99.90
52211;DHT22;38179;52.756;6.906;2022-11-18T02:55:45;6.90;99.90
52211;DHT22;38179;52.756;6.906;2022-11-18T02:58:14;6.90;99.90
52211;DHT22;38179;52.756;6.906;2022-11-18T03:00:41;6.90;99.90
52211;DHT22;38179;52.756;6.906;2022-11-18T03:11:31;6.90;99.90
52211;DHT22;38179;52.756;6.906;2022-11-18T03:16:48;6.90;99.90
52211;DHT22;38179;52.756;6.906;2022-11-18T03:19:50;6.90;99.90
52211;DHT22;38179;52.756;6.906;2022-11-18T03:22:30;6.90;99.90
52211;DHT22;38179;52.756;6.906;2022-11-18T03:28:14;6.90;99.90
52211;DHT22;38179;52.756;6.906;2022-11-18T03:30:49;6.90;99.90
52211;DHT22;38179;52.756;6.906;2022-11-18T03:33:23;6.90;99.90
52211;DHT22;38179;52.756;6.906;2022-11-18T03:35:53;6.90;99.90
52211;DHT22;38179;52.756;6.906;2022-11-18T03:38:28;6.90;99.90
52211;DHT22;38179;52.756;6.906;2022-11-18T03:40:58;6.90;99.90
52211;DHT22;38179;52.756;6.906;2022-11-18T03:43:30;6.90;99.90
52211;DHT22;38179;52.756;6.906;2022-11-18T03:46:23;6.90;99.90
52211;DHT22;38179;52.756;6.906;2022-11-18T03:48:50;6.90;99.90
52211;DHT22;38179;52.756;6.906;2022-11-18T03:51:35;6.90;99.90
52211;DHT22;38179;52.756;6.906;2022-11-18T03:54:17;6.90;99.90
52211;DHT22;38179;52.756;6.906;2022-11-18T03:56:59;6.90;99.90
52211;DHT22;38179;52.756;6.906;2022-11-18T04:00:16;6.90;99.90
52211;DHT22;38179;52.756;6.906;2022-11-18T04:02:22;6.90;99.90
52211;DHT22;38179;52.756;6.906;2022-11-18T04:04:49;6.90;99.90
52211;DHT22;38179;52.756;6.906;2022-11-18T04:07:26;6.90;99.90
52211;DHT22;38179;52.756;6.906;2022-11-18T04:09:58;6.90;99.90
52211;DHT22;38179;52.756;6.906;2022-11-18T04:12:29;6.90;99.90
52211;DHT22;38179;52.756;6.906;2022-11-18T04:14:56;6.90;99.90
52211;DHT22;38179;52.756;6.906;2022-11-18T04:17:23;6.80;99.90
52211;DHT22;38179;52.756;6.906;2022-11-18T04:19:51;6.80;99.90
52211;DHT22;38179;52.756;6.906;2022-11-18T04:22:16;6.80;99.90
52211;DHT22;38179;52.756;6.906;2022-11-18T04:24:43;6.90;99.90
52211;DHT22;38179;52.756;6.906;2022-11-18T04:27:09;6.80;99.90
52211;DHT22;38179;52.756;6.906;2022-11-18T04:29:36;6.80;99.90
52211;DHT22;38179;52.756;6.906;2022-11-18T04:32:02;6.90;99.90
52211;DHT22;38179;52.756;6.906;2022-11-18T04:34:28;6.90;99.90
52211;DHT22;38179;52.756;6.906;2022-11-18T04:36:56;6.80;99.90
52211;DHT22;38179;52.756;6.906;2022-11-18T04:39:22;6.80;99.90
52211;DHT22;38179;52.756;6.906;2022-11-18T04:41:47;6.80;99.90
52211;DHT22;38179;52.756;6.906;2022-11-18T04:44:27;6.80;99.90
52211;DHT22;38179;52.756;6.906;2022-11-18T04:46:54;6.80;99.90
52211;DHT22;38179;52.756;6.906;2022-11-18T04:49:21;6.80;99.90
52211;DHT22;38179;52.756;6.906;2022-11-18T04:51:47;6.80;99.90
52211;DHT22;38179;52.756;6.906;2022-11-18T04:54:14;6.80;99.90
52211;DHT22;38179;52.756;6.906;2022-11-18T04:56:40;6.70;99.90
52211;DHT22;38179;52.756;6.906;2022-11-18T04:59:07;6.80;99.90
52211;DHT22;38179;52.756;6.906;2022-11-18T05:01:33;6.80;99.90
52211;DHT22;38179;52.756;6.906;2022-11-18T05:04:00;6.80;99.90
52211;DHT22;38179;52.756;6.906;2022-11-18T05:06:27;6.80;99.90
52211;DHT22;38179;52.756;6.906;2022-11-18T05:08:53;6.80;99.90
52211;DHT22;38179;52.756;6.906;2022-11-18T05:11:19;7.80;99.90
52211;DHT22;38179;52.756;6.906;2022-11-18T05:14:04;6.70;99.90
52211;DHT22;38179;52.756;6.906;2022-11-18T05:16:29;6.70;99.90
52211;DHT22;38179;52.756;6.906;2022-11-18T05:18:55;6.70;99.90
52211;DHT22;38179;52.756;6.906;2022-11-18T05:21:21;6.70;99.90
52211;DHT22;38179;52.756;6.906;2022-11-18T05:23:47;6.70;99.90
52211;DHT22;38179;52.756;6.906;2022-11-18T05:26:13;6.70;99.90
52211;DHT22;38179;52.756;6.906;2022-11-18T05:28:39;6.70;99.90
52211;DHT22;38179;52.756;6.906;2022-11-18T05:31:13;6.70;99.90
52211;DHT22;38179;52.756;6.906;2022-11-18T05:33:40;6.70;99.90
52211;DHT22;38179;52.756;6.906;2022-11-18T05:36:07;6.70;99.90
52211;DHT22;38179;52.756;6.906;2022-11-18T05:38:34;6.70;99.90
52211;DHT22;38179;52.756;6.906;2022-11-18T05:41:01;6.70;99.90
52211;DHT22;38179;52.756;6.906;2022-11-18T05:43:27;6.70;99.90
52211;DHT22;38179;52.756;6.906;2022-11-18T05:45:53;6.60;99.90
52211;DHT22;38179;52.756;6.906;2022-11-18T05:48:19;6.60;99.90
52211;DHT22;38179;52.756;6.906;2022-11-18T05:50:47;6.60;99.90
52211;DHT22;38179;52.756;6.906;2022-11-18T05:53:14;6.60;99.90
52211;DHT22;38179;52.756;6.906;2022-11-18T05:58:18;6.60;99.90
52211;DHT22;38179;52.756;6.906;2022-11-18T06:00:45;6.60;99.90
52211;DHT22;38179;52.756;6.906;2022-11-18T06:03:24;6.60;99.90
52211;DHT22;38179;52.756;6.906;2022-11-18T06:05:55;6.60;99.90
52211;DHT22;38179;52.756;6.906;2022-11-18T06:08:25;6.60;99.90
52211;DHT22;38179;52.756;6.906;2022-11-18T06:10:53;6.60;99.90
52211;DHT22;38179;52.756;6.906;2022-11-18T06:13:25;6.60;99.90
52211;DHT22;38179;52.756;6.906;2022-11-18T06:15:52;6.60;99.90
52211;DHT22;38179;52.756;6.906;2022-11-18T06:18:24;6.60;99.90
52211;DHT22;38179;52.756;6.906;2022-11-18T06:20:57;6.60;99.90
52211;DHT22;38179;52.756;6.906;2022-11-18T06:23:28;6.60;99.90
52211;DHT22;38179;52.756;6.906;2022-11-18T06:25:55;6.60;99.90
52211;DHT22;38179;52.756;6.906;2022-11-18T06:28:21;6.50;99.90
52211;DHT22;38179;52.756;6.906;2022-11-18T06:30:48;6.50;99.90
52211;DHT22;38179;52.756;6.906;2022-11-18T06:33:14;6.60;99.90
52211;DHT22;38179;52.756;6.906;2022-11-18T06:35:41;6.50;99.90
52211;DHT22;38179;52.756;6.906;2022-11-18T06:38:08;6.50;99.90
52211;DHT22;38179;52.756;6.906;2022-11-18T06:40:34;6.60;99.90
52211;DHT22;38179;52.756;6.906;2022-11-18T06:43:05;6.50;99.90
52211;DHT22;38179;52.756;6.906;2022-11-18T06:45:49;6.50;99.90
52211;DHT22;38179;52.756;6.906;2022-11-18T06:48:34;6.50;99.90
52211;DHT22;38179;52.756;6.906;2022-11-18T06:51:03;6.50;99.90
52211;DHT22;38179;52.756;6.906;2022-11-18T06:53:28;6.50;99.90
52211;DHT22;38179;52.756;6.906;2022-11-18T06:55:54;6.50;99.90
52211;DHT22;38179;52.756;6.906;2022-11-18T06:58:20;6.50;99.90
52211;DHT22;38179;52.756;6.906;2022-11-18T07:00:46;6.50;99.90
52211;DHT22;38179;52.756;6.906;2022-11-18T07:03:12;6.50;99.90
52211;DHT22;38179;52.756;6.906;2022-11-18T07:05:37;6.50;99.90
52211;DHT22;38179;52.756;6.906;2022-11-18T07:08:03;6.50;99.90
52211;DHT22;38179;52.756;6.906;2022-11-18T07:10:29;6.50;99.90
52211;DHT22;38179;52.756;6.906;2022-11-18T07:12:55;6.50;99.90
52211;DHT22;38179;52.756;6.906;2022-11-18T07:15:21;6.50;99.90
52211;DHT22;38179;52.756;6.906;2022-11-18T07:17:47;6.50;99.90
52211;DHT22;38179;52.756;6.906;2022-11-18T07:20:13;6.50;99.90
52211;DHT22;38179;52.756;6.906;2022-11-18T07:22:39;6.50;99.90
52211;DHT22;38179;52.756;6.906;2022-11-18T07:25:05;6.50;99.90
52211;DHT22;38179;52.756;6.906;2022-11-18T07:27:32;6.50;99.90
52211;DHT22;38179;52.756;6.906;2022-11-18T07:30:01;6.50;99.90
52211;DHT22;38179;52.756;6.906;2022-11-18T07:32:31;6.50;99.90
52211;DHT22;38179;52.756;6.906;2022-11-18T07:34:58;6.50;99.90
52211;DHT22;38179;52.756;6.906;2022-11-18T07:37:24;6.50;99.90
52211;DHT22;38179;52.756;6.906;2022-11-18T07:39:50;6.50;99.90
52211;DHT22;38179;52.756;6.906;2022-11-18T07:42:16;6.40;99.90
52211;DHT22;38179;52.756;6.906;2022-11-18T07:44:42;6.40;99.90
52211;DHT22;38179;52.756;6.906;2022-11-18T07:47:08;6.40;99.90
52211;DHT22;38179;52.756;6.906;2022-11-18T07:49:34;6.40;99.90
52211;DHT22;38179;52.756;6.906;2022-11-18T07:52:00;6.40;99.90
52211;DHT22;38179;52.756;6.906;2022-11-18T07:54:25;6.40;99.90
52211;DHT22;38179;52.756;6.906;2022-11-18T07:56:51;6.40;99.90
52211;DHT22;38179;52.756;6.906;2022-11-18T07:59:17;6.40;99.90
52211;DHT22;38179;52.756;6.906;2022-11-18T08:01:43;6.40;99.90
52211;DHT22;38179;52.756;6.906;2022-11-18T08:04:10;6.40;99.90
52211;DHT22;38179;52.756;6.906;2022-11-18T08:06:38;6.40;99.90
52211;DHT22;38179;52.756;6.906;2022-11-18T08:09:05;6.30;99.90
52211;DHT22;38179;52.756;6.906;2022-11-18T08:11:32;6.30;99.90
52211;DHT22;38179;52.756;6.906;2022-11-18T08:13:58;6.30;99.90
52211;DHT22;38179;52.756;6.906;2022-11-18T08:16:24;6.30;99.90
52211;DHT22;38179;52.756;6.906;2022-11-18T08:18:51;6.30;99.90
52211;DHT22;38179;52.756;6.906;2022-11-18T08:21:19;6.30;99.90
52211;DHT22;38179;52.756;6.906;2022-11-18T08:23:53;6.30;99.90
52211;DHT22;38179;52.756;6.906;2022-11-18T08:26:20;6.30;99.90
52211;DHT22;38179;52.756;6.906;2022-11-18T08:28:46;6.30;99.90
52211;DHT22;38179;52.756;6.906;2022-11-18T08:31:20;6.30;99.90
52211;DHT22;38179;52.756;6.906;2022-11-18T08:33:47;6.30;99.90
52211;DHT22;38179;52.756;6.906;2022-11-18T08:36:18;6.30;99.90
52211;DHT22;38179;52.756;6.906;2022-11-18T08:38:45;6.30;99.90
52211;DHT22;38179;52.756;6.906;2022-11-18T08:41:17;6.20;99.90
52211;DHT22;38179;52.756;6.906;2022-11-18T08:43:43;6.20;99.90
52211;DHT22;38179;52.756;6.906;2022-11-18T08:46:09;6.30;99.90
52211;DHT22;38179;52.756;6.906;2022-11-18T08:48:36;6.30;99.90
52211;DHT22;38179;52.756;6.906;2022-11-18T08:51:01;6.30;99.90
52211;DHT22;38179;52.756;6.906;2022-11-18T08:53:27;6.30;99.90
52211;DHT22;38179;52.756;6.906;2022-11-18T08:55:55;6.30;99.90
52211;DHT22;38179;52.756;6.906;2022-11-18T08:58:21;6.30;99.90
52211;DHT22;38179;52.756;6.906;2022-11-18T09:00:48;6.30;99.90
52211;DHT22;38179;52.756;6.906;2022-11-18T09:03:13;6.30;99.90
52211;DHT22;38179;52.756;6.906;2022-11-18T09:05:39;6.30;99.90
52211;DHT22;38179;52.756;6.906;2022-11-18T09:08:05;6.30;99.90
52211;DHT22;38179;52.756;6.906;2022-11-18T09:10:31;6.30;99.90
52211;DHT22;38179;52.756;6.906;2022-11-18T09:12:59;6.30;99.90
52211;DHT22;38179;52.756;6.906;2022-11-18T09:15:25;6.30;99.90
52211;DHT22;38179;52.756;6.906;2022-11-18T09:17:52;6.30;99.90
52211;DHT22;38179;52.756;6.906;2022-11-18T09:20:18;6.30;99.90
52211;DHT22;38179;52.756;6.906;2022-11-18T09:22:43;6.30;99.90
52211;DHT22;38179;52.756;6.906;2022-11-18T09:25:09;6.30;99.90
52211;DHT22;38179;52.756;6.906;2022-11-18T09:27:35;6.30;99.90
52211;DHT22;38179;52.756;6.906;2022-11-18T09:30:03;6.30;99.90
52211;DHT22;38179;52.756;6.906;2022-11-18T09:32:29;6.30;99.90
52211;DHT22;38179;52.756;6.906;2022-11-18T09:34:56;6.30;99.90
52211;DHT22;38179;52.756;6.906;2022-11-18T09:37:22;6.30;99.90
52211;DHT22;38179;52.756;6.906;2022-11-18T09:39:48;6.30;99.90
52211;DHT22;38179;52.756;6.906;2022-11-18T09:45:29;6.30;99.90
52211;DHT22;38179;52.756;6.906;2022-11-18T09:47:59;6.20;99.90
52211;DHT22;38179;52.756;6.906;2022-11-18T09:50:32;6.20;99.90
52211;DHT22;38179;52.756;6.906;2022-11-18T09:53:23;6.20;99.90
52211;DHT22;38179;52.756;6.906;2022-11-18T09:55:50;6.20;99.90
52211;DHT22;38179;52.756;6.906;2022-11-18T09:58:35;6.20;99.90
52211;DHT22;38179;52.756;6.906;2022-11-18T10:01:07;6.20;99.90
52211;DHT22;38179;52.756;6.906;2022-11-18T10:03:34;6.20;99.90
52211;DHT22;38179;52.756;6.906;2022-11-18T10:11:24;6.20;99.90
52211;DHT22;38179;52.756;6.906;2022-11-18T10:14:09;6.20;99.90
52211;DHT22;38179;52.756;6.906;2022-11-18T10:19:46;6.20;99.90
52211;DHT22;38179;52.756;6.906;2022-11-18T10:22:33;6.20;99.90
52211;DHT22;38179;52.756;6.906;2022-11-18T10:25:11;6.20;99.90
52211;DHT22;38179;52.756;6.906;2022-11-18T10:27:41;6.20;99.90
52211;DHT22;38179;52.756;6.906;2022-11-18T10:30:25;6.20;99.90
52211;DHT22;38179;52.756;6.906;2022-11-18T10:33:03;6.20;99.90
52211;DHT22;38179;52.756;6.906;2022-11-18T10:35:33;6.20;99.90
52211;DHT22;38179;52.756;6.906;2022-11-18T10:38:19;6.10;99.90
52211;DHT22;38179;52.756;6.906;2022-11-18T10:46:24;6.10;99.90
52211;DHT22;38179;52.756;6.906;2022-11-18T10:49:17;6.10;99.90
52211;DHT22;38179;52.756;6.906;2022-11-18T10:51:45;6.10;99.90
52211;DHT22;38179;52.756;6.906;2022-11-18T10:54:20;6.10;99.90
52211;DHT22;38179;52.756;6.906;2022-11-18T10:56:52;6.10;99.90
52211;DHT22;38179;52.756;6.906;2022-11-18T11:04:40;6.10;99.90
52211;DHT22;38179;52.756;6.906;2022-11-18T11:12:36;6.00;99.90
52211;DHT22;38179;52.756;6.906;2022-11-18T11:15:10;6.00;99.90
52211;DHT22;38179;52.756;6.906;2022-11-18T11:17:41;6.00;99.90
52211;DHT22;38179;52.756;6.906;2022-11-18T11:22:43;5.90;99.90
52211;DHT22;38179;52.756;6.906;2022-11-18T11:25:16;5.90;99.90
52211;DHT22;38179;52.756;6.906;2022-11-18T11:33:51;5.80;99.90
52211;DHT22;38179;52.756;6.906;2022-11-18T11:36:31;5.80;99.90
52211;DHT22;38179;52.756;6.906;2022-11-18T11:39:30;5.70;99.90
52211;DHT22;38179;52.756;6.906;2022-11-18T11:50:51;5.70;99.90
52211;DHT22;38179;52.756;6.906;2022-11-18T11:53:23;5.70;99.90
52211;DHT22;38179;52.756;6.906;2022-11-18T12:06:10;5.60;99.90
52211;DHT22;38179;52.756;6.906;2022-11-18T12:08:38;5.60;99.90
52211;DHT22;38179;52.756;6.906;2022-11-18T12:11:14;5.60;99.90
52211;DHT22;38179;52.756;6.906;2022-11-18T12:19:07;5.50;99.90
52211;DHT22;38179;52.756;6.906;2022-11-18T12:26:43;5.50;99.90
52211;DHT22;38179;52.756;6.906;2022-11-18T12:34:28;5.50;99.90
52211;DHT22;38179;52.756;6.906;2022-11-18T12:36:55;5.50;99.90
52211;DHT22;38179;52.756;6.906;2022-11-18T12:41:52;5.40;99.90
52211;DHT22;38179;52.756;6.906;2022-11-18T12:44:38;5.40;99.90
52211;DHT22;38179;52.756;6.906;2022-11-18T12:47:06;5.40;99.90
52211;DHT22;38179;52.756;6.906;2022-11-18T12:52:00;5.40;99.90
52211;DHT22;38179;52.756;6.906;2022-11-18T12:54:44;5.40;99.90
52211;DHT22;38179;52.756;6.906;2022-11-18T12:57:33;5.30;99.90
52211;DHT22;38179;52.756;6.906;2022-11-18T13:00:27;5.30;99.90
52211;DHT22;38179;52.756;6.906;2022-11-18T13:02:56;5.20;99.90
52211;DHT22;38179;52.756;6.906;2022-11-18T13:05:25;5.20;99.90
52211;DHT22;38179;52.756;6.906;2022-11-18T13:08:10;5.20;99.90
52211;DHT22;38179;52.756;6.906;2022-11-18T13:15:46;5.20;99.90
52211;DHT22;38179;52.756;6.906;2022-11-18T13:18:30;5.20;99.90
52211;DHT22;38179;52.756;6.906;2022-11-18T13:20:58;5.10;99.90
52211;DHT22;38179;52.756;6.906;2022-11-18T13:23:45;5.10;99.90
52211;DHT22;38179;52.756;6.906;2022-11-18T13:26:27;5.10;99.90
52211;DHT22;38179;52.756;6.906;2022-11-18T13:34:51;5.00;99.90
52211;DHT22;38179;52.756;6.906;2022-11-18T13:37:47;5.00;99.90
52211;DHT22;38179;52.756;6.906;2022-11-18T13:40:22;5.00;99.90
52211;DHT22;38179;52.756;6.906;2022-11-18T13:42:48;4.90;99.90
52211;DHT22;38179;52.756;6.906;2022-11-18T13:45:14;4.90;99.90
52211;DHT22;38179;52.756;6.906;2022-11-18T13:48:00;4.90;99.90
52211;DHT22;38179;52.756;6.906;2022-11-18T13:58:39;4.80;99.90
52211;DHT22;38179;52.756;6.906;2022-11-18T14:01:26;4.80;99.90
52211;DHT22;38179;52.756;6.906;2022-11-18T14:03:59;4.70;99.90
52211;DHT22;38179;52.756;6.906;2022-11-18T14:06:33;4.60;99.90
52211;DHT22;38179;52.756;6.906;2022-11-18T14:09:23;4.60;99.90
52211;DHT22;38179;52.756;6.906;2022-11-18T14:12:19;4.60;99.90
52211;DHT22;38179;52.756;6.906;2022-11-18T14:14:46;4.60;99.90
52211;DHT22;38179;52.756;6.906;2022-11-18T14:17:26;4.50;99.90
52211;DHT22;38179;52.756;6.906;2022-11-18T14:19:55;4.50;99.90
52211;DHT22;38179;52.756;6.906;2022-11-18T14:22:26;4.50;99.90
52211;DHT22;38179;52.756;6.906;2022-11-18T14:25:00;4.50;99.90
52211;DHT22;38179;52.756;6.906;2022-11-18T14:27:38;4.50;99.90
52211;DHT22;38179;52.756;6.906;2022-11-18T14:33:14;4.40;99.90
52211;DHT22;38179;52.756;6.906;2022-11-18T14:38:37;4.40;99.90
52211;DHT22;38179;52.756;6.906;2022-11-18T14:41:08;4.40;99.90
52211;DHT22;38179;52.756;6.906;2022-11-18T14:43:34;4.40;99.90
52211;DHT22;38179;52.756;6.906;2022-11-18T14:46:23;4.40;99.90
52211;DHT22;38179;52.756;6.906;2022-11-18T14:48:50;4.30;99.90
52211;DHT22;38179;52.756;6.906;2022-11-18T14:51:16;4.40;99.90
52211;DHT22;38179;52.756;6.906;2022-11-18T14:53:42;4.30;99.90
52211;DHT22;38179;52.756;6.906;2022-11-18T14:56:16;4.30;99.90
52211;DHT22;38179;52.756;6.906;2022-11-18T14:58:45;4.30;99.90
52211;DHT22;38179;52.756;6.906;2022-11-18T15:01:11;4.30;99.90
52211;DHT22;38179;52.756;6.906;2022-11-18T15:03:38;4.30;99.90
52211;DHT22;38179;52.756;6.906;2022-11-18T15:06:13;4.30;99.90
52211;DHT22;38179;52.756;6.906;2022-11-18T15:08:40;4.30;99.90
52211;DHT22;38179;52.756;6.906;2022-11-18T15:11:07;4.30;99.90
52211;DHT22;38179;52.756;6.906;2022-11-18T15:13:33;4.30;99.90
52211;DHT22;38179;52.756;6.906;2022-11-18T15:16:01;4.30;99.90
52211;DHT22;38179;52.756;6.906;2022-11-18T15:18:27;4.30;99.90
52211;DHT22;38179;52.756;6.906;2022-11-18T15:20:53;4.20;99.90
52211;DHT22;38179;52.756;6.906;2022-11-18T15:23:19;4.20;99.90
52211;DHT22;38179;52.756;6.906;2022-11-18T15:25:44;4.10;99.90
52211;DHT22;38179;52.756;6.906;2022-11-18T15:28:10;4.00;99.90
52211;DHT22;38179;52.756;6.906;2022-11-18T15:30:37;4.00;99.90
52211;DHT22;38179;52.756;6.906;2022-11-18T15:33:03;3.90;99.90
52211;DHT22;38179;52.756;6.906;2022-11-18T15:35:29;3.90;99.90
52211;DHT22;38179;52.756;6.906;2022-11-18T15:38:19;3.90;99.90
52211;DHT22;38179;52.756;6.906;2022-11-18T15:40:45;3.80;99.90
52211;DHT22;38179;52.756;6.906;2022-11-18T15:43:11;3.80;99.90
52211;DHT22;38179;52.756;6.906;2022-11-18T15:45:37;3.80;99.90
52211;DHT22;38179;52.756;6.906;2022-11-18T15:48:02;3.80;99.90
52211;DHT22;38179;52.756;6.906;2022-11-18T15:50:28;3.80;99.90
52211;DHT22;38179;52.756;6.906;2022-11-18T15:52:54;3.80;99.90
52211;DHT22;38179;52.756;6.906;2022-11-18T15:55:20;3.80;99.90
52211;DHT22;38179;52.756;6.906;2022-11-18T15:57:46;3.80;99.90
52211;DHT22;38179;52.756;6.906;2022-11-18T16:00:12;3.90;99.90
52211;DHT22;38179;52.756;6.906;2022-11-18T16:02:38;3.90;99.90
52211;DHT22;38179;52.756;6.906;2022-11-18T16:05:05;3.80;99.90
52211;DHT22;38179;52.756;6.906;2022-11-18T16:07:30;3.90;99.90
52211;DHT22;38179;52.756;6.906;2022-11-18T16:09:56;3.80;99.90
52211;DHT22;38179;52.756;6.906;2022-11-18T16:12:40;3.80;99.90
52211;DHT22;38179;52.756;6.906;2022-11-18T16:15:16;3.80;99.90
52211;DHT22;38179;52.756;6.906;2022-11-18T16:18:02;3.80;99.90
52211;DHT22;38179;52.756;6.906;2022-11-18T16:20:28;3.80;99.90
52211;DHT22;38179;52.756;6.906;2022-11-18T16:22:55;3.80;99.90
52211;DHT22;38179;52.756;6.906;2022-11-18T16:25:22;3.70;99.90
52211;DHT22;38179;52.756;6.906;2022-11-18T16:27:48;3.70;99.90
52211;DHT22;38179;52.756;6.906;2022-11-18T16:30:14;3.80;99.90
52211;DHT22;38179;52.756;6.906;2022-11-18T16:32:59;3.70;99.90
52211;DHT22;38179;52.756;6.906;2022-11-18T16:35:26;3.60;99.90
52211;DHT22;38179;52.756;6.906;2022-11-18T16:37:53;3.50;99.90
52211;DHT22;38179;52.756;6.906;2022-11-18T16:40:19;3.50;99.90
52211;DHT22;38179;52.756;6.906;2022-11-18T16:42:51;3.40;99.90
52211;DHT22;38179;52.756;6.906;2022-11-18T16:45:18;3.40;99.90
52211;DHT22;38179;52.756;6.906;2022-11-18T16:47:44;3.40;99.90
52211;DHT22;38179;52.756;6.906;2022-11-18T16:50:11;3.40;99.90
52211;DHT22;38179;52.756;6.906;2022-11-18T16:52:37;3.40;99.90
52211;DHT22;38179;52.756;6.906;2022-11-18T16:55:03;3.40;99.90
52211;DHT22;38179;52.756;6.906;2022-11-18T16:57:29;3.40;99.90
52211;DHT22;38179;52.756;6.906;2022-11-18T16:59:58;3.30;99.90
52211;DHT22;38179;52.756;6.906;2022-11-18T17:02:24;3.30;99.90
52211;DHT22;38179;52.756;6.906;2022-11-18T17:04:50;3.30;99.90
52211;DHT22;38179;52.756;6.906;2022-11-18T17:07:15;3.30;99.90
52211;DHT22;38179;52.756;6.906;2022-11-18T17:09:45;3.30;99.90
52211;DHT22;38179;52.756;6.906;2022-11-18T17:12:10;3.20;99.90
52211;DHT22;38179;52.756;6.906;2022-11-18T17:14:36;3.20;99.90
52211;DHT22;38179;52.756;6.906;2022-11-18T17:17:05;3.20;99.90
52211;DHT22;38179;52.756;6.906;2022-11-18T17:19:31;3.20;99.90
52211;DHT22;38179;52.756;6.906;2022-11-18T17:21:57;3.10;99.90
52211;DHT22;38179;52.756;6.906;2022-11-18T17:24:23;3.10;99.90
52211;DHT22;38179;52.756;6.906;2022-11-18T17:26:50;3.10;99.90
52211;DHT22;38179;52.756;6.906;2022-11-18T17:29:16;3.00;99.90
52211;DHT22;38179;52.756;6.906;2022-11-18T17:31:42;3.00;99.90
52211;DHT22;38179;52.756;6.906;2022-11-18T17:34:09;3.00;99.90
52211;DHT22;38179;52.756;6.906;2022-11-18T17:36:36;2.90;99.90
52211;DHT22;38179;52.756;6.906;2022-11-18T17:39:02;2.90;99.90
52211;DHT22;38179;52.756;6.906;2022-11-18T17:41:31;2.90;99.90
52211;DHT22;38179;52.756;6.906;2022-11-18T17:44:16;2.90;99.90
52211;DHT22;38179;52.756;6.906;2022-11-18T17:46:43;2.80;99.90
52211;DHT22;38179;52.756;6.906;2022-11-18T17:49:14;2.80;99.90
52211;DHT22;38179;52.756;6.906;2022-11-18T17:51:40;2.80;99.90
52211;DHT22;38179;52.756;6.906;2022-11-18T17:54:07;2.80;99.90
52211;DHT22;38179;52.756;6.906;2022-11-18T17:56:33;2.80;99.90
52211;DHT22;38179;52.756;6.906;2022-11-18T17:58:59;2.70;99.90
52211;DHT22;38179;52.756;6.906;2022-11-18T18:01:25;2.70;99.90
52211;DHT22;38179;52.756;6.906;2022-11-18T18:03:51;2.70;99.90
52211;DHT22;38179;52.756;6.906;2022-11-18T18:06:17;2.70;99.90
52211;DHT22;38179;52.756;6.906;2022-11-18T18:08:47;2.60;99.90
52211;DHT22;38179;52.756;6.906;2022-11-18T18:11:16;3.20;99.90
52211;DHT22;38179;52.756;6.906;2022-11-18T18:13:42;2.60;99.90
52211;DHT22;38179;52.756;6.906;2022-11-18T18:16:28;2.50;99.90